Time;durP1;ratioP1;P1;durP2;ratioP2;P2;SDS_P1;SDS_P2;PMS_P1;PMS_P2;Temp;Humidity;BMP_temperature;BMP_pressure;BME280_temperature;BME280_humidity;BME280_pressure;Samples;Min_cycle;Max_cycle;Signal;HPM_P1;HPM_P2
2023/01/19 00:00:49;;;;;;;21.70;15.23;;;-3.60;57.30;;;;;;4988628;28;20464;-51
2023/01/19 00:03:17;;;;;;;21.13;15.23;;;-3.60;59.60;;;;;;4993133;28;20515;-51
2023/01/19 00:05:44;;;;;;;20.03;14.07;;;-3.70;61.50;;;;;;4992887;28;20496;-51
2023/01/19 00:08:14;;;;;;;17.53;12.87;;;-3.60;58.90;;;;;;4991117;28;20496;-51
2023/01/19 00:10:41;;;;;;;21.97;14.57;;;-3.60;59.60;;;;;;4986661;28;20467;-53
2023/01/19 00:13:08;;;;;;;20.87;13.70;;;-3.60;58.50;;;;;;4989019;28;20491;-52
2023/01/19 00:15:35;;;;;;;18.17;12.73;;;-3.60;58.60;;;;;;4989620;28;20541;-52
2023/01/19 00:18:01;;;;;;;19.70;13.03;;;-3.60;59.60;;;;;;4984965;28;20492;-51
2023/01/19 00:20:30;;;;;;;19.10;13.57;;;-3.60;58.80;;;;;;4992750;28;20495;-52
2023/01/19 00:22:57;;;;;;;16.10;12.70;;;-3.70;60.10;;;;;;4991432;28;20969;-51
2023/01/19 00:25:23;;;;;;;18.40;11.60;;;-3.80;63.60;;;;;;4991516;28;20872;-51
2023/01/19 00:27:50;;;;;;;22.57;13.13;;;-3.80;64.40;;;;;;4987338;28;20506;-51
2023/01/19 00:30:17;;;;;;;21.43;13.10;;;-3.80;62.60;;;;;;4990470;28;20527;-51
2023/01/19 00:32:44;;;;;;;17.27;13.10;;;-3.80;63.60;;;;;;4990891;28;20561;-51
2023/01/19 00:35:10;;;;;;;14.80;12.20;;;-3.80;61.70;;;;;;4985571;28;20473;-52
2023/01/19 00:37:38;;;;;;;20.43;13.27;;;-3.80;61.90;;;;;;4982525;28;20543;-53
2023/01/19 00:40:06;;;;;;;17.47;12.60;;;-3.80;58.40;;;;;;4992963;28;20478;-53
2023/01/19 00:42:43;;;;;;;14.90;12.37;;;-3.80;56.20;;;;;;4982685;28;20519;-56
2023/01/19 00:45:11;;;;;;;18.30;12.63;;;-3.70;54.50;;;;;;4983114;28;20460;-56
2023/01/19 00:47:39;;;;;;;13.00;10.40;;;-3.70;55.70;;;;;;4989582;28;20492;-56
2023/01/19 00:50:06;;;;;;;11.10;9.60;;;-3.70;56.20;;;;;;4993125;28;20545;-56
2023/01/19 00:52:32;;;;;;;13.67;9.13;;;-3.60;53.20;;;;;;4990452;28;20517;-54
2023/01/19 00:55:00;;;;;;;17.87;10.30;;;-3.60;52.40;;;;;;4985965;28;20570;-57
2023/01/19 00:57:28;;;;;;;20.20;11.33;;;-3.60;52.10;;;;;;4988300;28;20514;-56
2023/01/19 00:59:55;;;;;;;13.63;10.40;;;-3.50;51.40;;;;;;4992283;28;20558;-55
2023/01/19 01:02:21;;;;;;;13.27;9.40;;;-3.50;50.40;;;;;;4989047;28;20577;-54
2023/01/19 01:04:53;;;;;;;10.30;8.40;;;-3.50;50.20;;;;;;4991305;28;20498;-57
2023/01/19 01:07:20;;;;;;;9.67;8.67;;;-3.40;48.60;;;;;;4990647;28;20460;-56
2023/01/19 01:09:46;;;;;;;11.33;8.73;;;-3.30;48.00;;;;;;4989528;28;20493;-56
2023/01/19 01:12:14;;;;;;;11.40;8.30;;;-3.20;46.90;;;;;;4989557;28;20544;-55
2023/01/19 01:14:41;;;;;;;10.60;8.43;;;-3.20;46.50;;;;;;4989664;28;20534;-57
2023/01/19 01:17:10;;;;;;;10.77;8.87;;;-3.10;46.60;;;;;;4987796;28;20978;-54
2023/01/19 01:19:36;;;;;;;10.33;8.80;;;-3.10;47.00;;;;;;4981374;28;20464;-55
2023/01/19 01:22:04;;;;;;;8.40;7.50;;;-3.10;48.30;;;;;;4989601;28;20519;-55
2023/01/19 01:24:30;;;;;;;9.40;7.80;;;-3.10;48.40;;;;;;4984518;28;20468;-56
2023/01/19 01:26:57;;;;;;;9.73;8.00;;;-3.10;49.20;;;;;;4987565;28;20467;-54
2023/01/19 01:29:25;;;;;;;12.03;8.63;;;-3.30;52.90;;;;;;4984176;28;20491;-55
2023/01/19 01:31:51;;;;;;;12.63;8.10;;;-3.40;54.20;;;;;;4984326;28;20496;-56
2023/01/19 01:34:18;;;;;;;10.47;7.50;;;-3.40;55.00;;;;;;4984538;28;20484;-55
2023/01/19 01:36:45;;;;;;;10.43;7.60;;;-3.40;55.80;;;;;;4990403;28;20501;-58
2023/01/19 01:39:11;;;;;;;11.67;7.87;;;-3.40;56.60;;;;;;4988352;28;20499;-57
2023/01/19 01:41:38;;;;;;;12.00;8.00;;;-3.50;57.00;;;;;;4980161;28;20549;-55
2023/01/19 01:44:38;;;;;;;8.40;7.60;;;-3.50;57.50;;;;;;4988461;28;20500;-55
2023/01/19 01:47:06;;;;;;;9.87;8.20;;;-3.50;57.20;;;;;;4982715;28;20503;-55
2023/01/19 01:49:32;;;;;;;9.87;7.57;;;-3.50;56.80;;;;;;4981485;28;20458;-55
2023/01/19 01:51:59;;;;;;;10.47;8.20;;;-3.50;59.70;;;;;;4986681;28;20520;-55
2023/01/19 01:54:28;;;;;;;8.13;7.33;;;-3.60;61.90;;;;;;4985276;28;20524;-54
2023/01/19 01:57:00;;;;;;;8.23;7.23;;;-3.60;62.70;;;;;;4988864;28;20503;-55
2023/01/19 01:59:33;;;;;;;9.70;8.27;;;-3.70;63.40;;;;;;4991333;28;20506;-56
2023/01/19 02:04:54;;;;;;;15.60;9.27;;;-3.80;64.90;;;;;;4994331;28;20797;-54
2023/01/19 02:15:39;;;;;;;8.70;7.80;;;-3.70;59.70;;;;;;4992440;28;20451;-56
2023/01/19 02:18:06;;;;;;;8.97;7.87;;;-3.80;57.40;;;;;;4996589;28;20495;-56
2023/01/19 02:20:36;;;;;;;11.77;7.87;;;-3.70;56.50;;;;;;4993528;28;20490;-56
2023/01/19 02:23:07;;;;;;;11.70;8.43;;;-3.70;56.20;;;;;;4991285;28;20518;-56
2023/01/19 02:25:35;;;;;;;9.00;8.00;;;-3.70;56.10;;;;;;4996875;28;20545;-54
2023/01/19 02:28:02;;;;;;;16.63;8.80;;;-3.70;56.40;;;;;;4987688;28;20496;-55
2023/01/19 02:30:29;;;;;;;8.53;7.70;;;-3.70;56.60;;;;;;4993238;28;20503;-55
2023/01/19 02:32:55;;;;;;;9.67;7.30;;;-3.60;53.90;;;;;;4991082;28;20527;-54
2023/01/19 02:35:23;;;;;;;11.23;7.93;;;-3.50;51.60;;;;;;4992072;28;20523;-55
2023/01/19 02:37:50;;;;;;;10.13;7.77;;;-3.50;51.50;;;;;;4995990;28;20487;-56
2023/01/19 02:40:19;;;;;;;9.90;6.67;;;-3.50;51.50;;;;;;4994387;28;20509;-57
2023/01/19 02:42:49;;;;;;;10.33;7.53;;;-3.40;50.40;;;;;;4995570;28;21777;-56
2023/01/19 02:45:21;;;;;;;8.37;7.57;;;-3.40;49.80;;;;;;4988042;28;20460;-56
2023/01/19 02:47:50;;;;;;;10.80;7.60;;;-3.40;50.70;;;;;;4997887;28;20499;-56
2023/01/19 02:50:49;;;;;;;10.00;7.37;;;-3.40;51.30;;;;;;4995945;28;20954;-57
2023/01/19 02:53:37;;;;;;;10.67;7.37;;;-3.50;54.40;;;;;;4932844;29;20899;-57
2023/01/19 02:56:16;;;;;;;9.13;6.97;;;-3.60;56.80;;;;;;4989564;28;20496;-55
2023/01/19 02:58:53;;;;;;;7.13;6.30;;;-3.70;58.20;;;;;;4988885;28;20499;-54
2023/01/19 03:01:27;;;;;;;14.57;7.30;;;-3.70;59.60;;;;;;4995540;28;20572;-55
2023/01/19 03:03:57;;;;;;;7.97;7.00;;;-3.80;60.00;;;;;;4997207;28;20460;-55
2023/01/19 03:06:36;;;;;;;9.47;6.57;;;-3.80;61.90;;;;;;4991593;28;20487;-57
2023/01/19 03:09:09;;;;;;;8.97;6.57;;;-3.80;63.60;;;;;;4994786;28;21022;-54
2023/01/19 03:11:41;;;;;;;7.47;6.77;;;-3.80;62.00;;;;;;4992919;28;20881;-55
2023/01/19 03:14:12;;;;;;;10.90;8.10;;;-3.80;62.10;;;;;;4991840;28;20519;-55
2023/01/19 03:16:42;;;;;;;13.13;8.43;;;-3.80;59.90;;;;;;4990914;28;20553;-56
2023/01/19 03:19:13;;;;;;;12.80;7.60;;;-3.80;58.80;;;;;;4991202;28;20500;-55
2023/01/19 03:21:43;;;;;;;8.10;7.30;;;-3.80;60.20;;;;;;4990760;28;20537;-56
2023/01/19 03:24:13;;;;;;;9.80;7.70;;;-3.80;58.20;;;;;;4988992;28;20498;-55
2023/01/19 03:26:44;;;;;;;10.03;6.67;;;-3.80;57.70;;;;;;4994201;28;20502;-54
2023/01/19 03:29:14;;;;;;;13.67;8.80;;;-3.80;58.20;;;;;;4992380;28;20499;-55
2023/01/19 03:31:43;;;;;;;16.03;8.07;;;-3.80;60.00;;;;;;4992380;28;20961;-55
2023/01/19 03:34:13;;;;;;;8.43;7.47;;;-3.80;61.30;;;;;;4989658;28;20479;-55
2023/01/19 03:36:44;;;;;;;10.80;6.80;;;-3.90;62.80;;;;;;4993936;28;20487;-55
2023/01/19 03:39:14;;;;;;;10.47;7.87;;;-3.90;64.70;;;;;;4988337;28;20503;-54
2023/01/19 03:41:42;;;;;;;10.67;8.20;;;-3.90;63.70;;;;;;4984058;28;20526;-56
2023/01/19 03:44:12;;;;;;;11.23;8.10;;;-4.00;64.30;;;;;;4989805;28;20492;-57
2023/01/19 03:46:39;;;;;;;10.97;7.60;;;-3.90;62.20;;;;;;4986879;28;20518;-54
2023/01/19 03:49:07;;;;;;;11.53;8.10;;;-3.90;60.40;;;;;;4989753;28;20496;-55
2023/01/19 03:51:36;;;;;;;14.30;7.70;;;-3.80;59.80;;;;;;4988871;28;20502;-55
2023/01/19 03:54:03;;;;;;;9.23;8.30;;;-3.80;59.30;;;;;;4989341;28;20579;-54
2023/01/19 03:56:29;;;;;;;9.50;7.40;;;-3.90;61.00;;;;;;4988860;28;20487;-57
2023/01/19 03:58:56;;;;;;;8.53;7.67;;;-3.90;61.50;;;;;;4989832;28;20496;-57
2023/01/19 04:01:24;;;;;;;11.80;8.47;;;-3.90;63.40;;;;;;4990668;28;20918;-55
2023/01/19 04:03:52;;;;;;;11.33;8.40;;;-3.90;63.20;;;;;;4992515;28;20453;-54
2023/01/19 04:06:19;;;;;;;10.03;8.70;;;-3.90;59.10;;;;;;4993879;28;20483;-55
2023/01/19 04:08:47;;;;;;;10.57;8.40;;;-3.80;58.10;;;;;;4993397;28;20961;-55
2023/01/19 04:11:14;;;;;;;14.60;9.17;;;-3.80;58.00;;;;;;4989118;28;21004;-56
2023/01/19 04:13:40;;;;;;;9.20;6.77;;;-3.70;55.80;;;;;;4989431;28;20509;-55
2023/01/19 04:16:07;;;;;;;11.90;9.37;;;-3.60;56.30;;;;;;4990249;28;20523;-54
2023/01/19 04:18:35;;;;;;;10.90;8.50;;;-3.60;53.80;;;;;;4993540;28;20506;-55
2023/01/19 04:21:03;;;;;;;16.90;9.47;;;-3.50;53.10;;;;;;4989532;28;20468;-55
2023/01/19 04:23:29;;;;;;;10.73;9.53;;;-3.40;52.90;;;;;;4990237;28;21012;-55
2023/01/19 04:25:59;;;;;;;13.77;9.47;;;-3.40;53.40;;;;;;4988205;28;20553;-54
2023/01/19 04:28:27;;;;;;;11.10;9.50;;;-3.40;53.70;;;;;;4984057;28;20526;-55
2023/01/19 04:30:53;;;;;;;12.93;9.30;;;-3.40;53.90;;;;;;4982106;28;20495;-56
2023/01/19 04:33:21;;;;;;;10.70;8.80;;;-3.40;54.60;;;;;;4989649;28;20550;-55
2023/01/19 04:35:51;;;;;;;12.20;9.90;;;-3.50;54.50;;;;;;4983503;28;20520;-56
2023/01/19 04:38:18;;;;;;;13.47;9.73;;;-3.40;53.90;;;;;;4990879;28;20483;-56
2023/01/19 04:40:45;;;;;;;14.43;10.27;;;-3.40;54.00;;;;;;4981732;28;20478;-56
2023/01/19 04:43:13;;;;;;;10.90;9.43;;;-3.40;54.70;;;;;;4987456;28;20531;-56
2023/01/19 04:45:39;;;;;;;14.43;10.33;;;-3.40;54.60;;;;;;4983610;28;20467;-56
2023/01/19 04:48:06;;;;;;;15.73;10.40;;;-3.40;54.40;;;;;;4989047;28;20544;-56
2023/01/19 04:50:33;;;;;;;14.77;10.80;;;-3.40;54.20;;;;;;4987561;28;20467;-55
2023/01/19 04:53:01;;;;;;;15.90;10.53;;;-3.30;52.80;;;;;;4985119;28;20488;-55
2023/01/19 04:55:28;;;;;;;16.33;11.50;;;-3.20;54.50;;;;;;4989205;28;20941;-56
2023/01/19 04:57:54;;;;;;;13.07;10.20;;;-3.30;56.20;;;;;;4991448;28;21004;-56
2023/01/19 05:00:22;;;;;;;21.33;11.03;;;-3.30;56.60;;;;;;4989867;28;20468;-56
2023/01/19 05:02:49;;;;;;;14.60;10.70;;;-3.30;56.20;;;;;;4990449;28;20487;-56
2023/01/19 05:05:16;;;;;;;11.87;10.60;;;-3.30;56.80;;;;;;4984582;28;20484;-56
2023/01/19 05:07:43;;;;;;;14.27;10.63;;;-3.30;57.00;;;;;;4991992;28;20467;-55
2023/01/19 05:10:11;;;;;;;18.20;10.97;;;-3.30;57.00;;;;;;4990193;28;20630;-56
2023/01/19 05:12:38;;;;;;;16.80;11.70;;;-3.30;56.20;;;;;;4990763;28;20549;-55
2023/01/19 05:15:08;;;;;;;15.97;11.90;;;-3.30;56.80;;;;;;4987552;28;20578;-56
2023/01/19 05:17:34;;;;;;;17.97;11.87;;;-3.30;55.40;;;;;;4990880;28;20464;-54
2023/01/19 05:20:02;;;;;;;16.17;11.57;;;-3.20;57.10;;;;;;4985055;28;20500;-54
2023/01/19 05:22:29;;;;;;;20.43;12.70;;;-3.20;57.10;;;;;;4991070;28;20484;-55
2023/01/19 05:24:55;;;;;;;14.30;9.87;;;-3.20;57.40;;;;;;4992075;28;20475;-56
2023/01/19 05:27:23;;;;;;;15.97;11.80;;;-3.20;56.80;;;;;;4988939;28;20502;-54
2023/01/19 05:29:50;;;;;;;19.57;11.90;;;-3.20;57.10;;;;;;4989624;28;20507;-56
2023/01/19 05:32:16;;;;;;;14.47;11.00;;;-3.20;59.00;;;;;;4986024;28;20527;-55
2023/01/19 05:34:43;;;;;;;12.23;11.00;;;-3.20;58.20;;;;;;4988431;28;20873;-55
2023/01/19 05:37:10;;;;;;;17.37;11.50;;;-3.20;58.50;;;;;;4989718;28;20500;-55
2023/01/19 05:39:37;;;;;;;14.90;12.03;;;-3.20;57.40;;;;;;4989973;28;20468;-55
2023/01/19 05:42:03;;;;;;;15.03;12.33;;;-3.20;57.80;;;;;;4991348;28;20515;-55
2023/01/19 05:44:31;;;;;;;16.63;11.40;;;-3.20;58.40;;;;;;4986569;28;20496;-55
2023/01/19 05:46:58;;;;;;;14.00;11.30;;;-3.20;59.10;;;;;;4988689;28;20499;-55
2023/01/19 05:49:24;;;;;;;14.70;10.67;;;-3.30;60.00;;;;;;4991133;28;20503;-54
2023/01/19 05:51:51;;;;;;;18.63;11.90;;;-3.30;60.60;;;;;;4989372;28;20527;-56
2023/01/19 05:54:17;;;;;;;15.47;11.30;;;-3.30;60.30;;;;;;4988970;28;20506;-54
2023/01/19 05:56:44;;;;;;;15.33;10.90;;;-3.30;60.10;;;;;;4984921;28;20528;-55
2023/01/19 05:59:11;;;;;;;16.63;12.00;;;-3.40;60.40;;;;;;4991045;28;20470;-55
2023/01/19 06:01:38;;;;;;;15.50;11.40;;;-3.40;60.40;;;;;;4988159;28;20496;-55
2023/01/19 06:04:05;;;;;;;14.67;11.73;;;-3.30;58.90;;;;;;4988283;28;20592;-55
2023/01/19 06:06:32;;;;;;;12.87;11.07;;;-3.40;59.10;;;;;;4980985;28;22971;-55
2023/01/19 06:08:58;;;;;;;13.13;11.10;;;-3.40;58.90;;;;;;4984188;28;20511;-55
2023/01/19 06:11:25;;;;;;;21.13;11.37;;;-3.40;58.00;;;;;;4988490;28;20519;-55
2023/01/19 06:13:52;;;;;;;15.57;12.00;;;-3.40;58.30;;;;;;4987100;28;20476;-55
2023/01/19 06:16:18;;;;;;;17.23;11.70;;;-3.30;58.00;;;;;;4989581;28;20523;-54
2023/01/19 06:18:46;;;;;;;12.03;9.87;;;-3.30;59.50;;;;;;4990782;28;20573;-55
2023/01/19 06:21:13;;;;;;;17.10;11.50;;;-3.30;59.40;;;;;;4989788;28;20503;-55
2023/01/19 06:23:40;;;;;;;13.37;10.67;;;-3.30;60.40;;;;;;4990574;28;20529;-55
2023/01/19 06:26:07;;;;;;;12.60;10.43;;;-3.30;60.10;;;;;;4981428;28;20550;-57
2023/01/19 06:28:34;;;;;;;13.17;10.70;;;-3.30;59.60;;;;;;4984433;28;20504;-55
2023/01/19 06:31:00;;;;;;;14.80;10.50;;;-3.20;60.20;;;;;;4990187;28;20491;-57
2023/01/19 06:33:28;;;;;;;15.47;10.03;;;-3.20;61.30;;;;;;4990132;28;20887;-55
2023/01/19 06:35:56;;;;;;;16.73;11.87;;;-3.30;62.70;;;;;;4984091;28;20569;-57
2023/01/19 06:38:23;;;;;;;12.90;11.23;;;-3.20;62.20;;;;;;4990934;28;20505;-55
2023/01/19 06:40:53;;;;;;;13.77;10.77;;;-3.20;61.70;;;;;;4987924;28;20486;-57
2023/01/19 06:43:20;;;;;;;16.03;11.90;;;-3.20;63.60;;;;;;4990165;28;20505;-52
2023/01/19 06:45:48;;;;;;;18.00;12.23;;;-3.20;65.10;;;;;;4982782;28;21178;-52
2023/01/19 06:48:14;;;;;;;14.13;11.40;;;-3.20;65.60;;;;;;4993948;28;20813;-53
2023/01/19 06:50:41;;;;;;;30.67;20.50;;;-3.20;65.50;;;;;;4994115;28;20462;-52
2023/01/19 06:53:08;;;;;;;72.57;62.37;;;-3.20;65.70;;;;;;4991863;28;20563;-52
2023/01/19 06:55:35;;;;;;;20.87;17.10;;;-3.30;64.50;;;;;;4993034;28;20487;-52
2023/01/19 06:58:02;;;;;;;14.73;11.20;;;-3.30;66.90;;;;;;4986852;28;20478;-52
2023/01/19 07:00:29;;;;;;;18.63;11.70;;;-3.30;67.20;;;;;;4990194;28;20904;-53
2023/01/19 07:02:55;;;;;;;17.60;11.67;;;-3.30;66.10;;;;;;4991736;28;21316;-53
2023/01/19 07:05:22;;;;;;;22.43;14.37;;;-3.30;65.10;;;;;;4992743;28;20500;-52
2023/01/19 07:07:51;;;;;;;18.07;13.13;;;-3.20;60.90;;;;;;4994543;28;20522;-52
2023/01/19 07:10:20;;;;;;;15.00;12.40;;;-3.30;64.90;;;;;;4988698;28;20467;-53
2023/01/19 07:12:46;;;;;;;30.27;23.77;;;-3.30;67.40;;;;;;4992830;28;20491;-53
2023/01/19 07:15:13;;;;;;;100.57;89.90;;;-3.30;66.40;;;;;;4993969;28;20530;-53
2023/01/19 07:17:41;;;;;;;45.03;40.43;;;-3.30;66.60;;;;;;4993652;28;20492;-53
2023/01/19 07:20:10;;;;;;;20.20;13.87;;;-3.40;65.90;;;;;;4992049;28;20554;-53
2023/01/19 07:22:36;;;;;;;19.73;15.47;;;-3.40;65.70;;;;;;4992798;28;20483;-52
2023/01/19 07:25:03;;;;;;;17.47;12.30;;;-3.30;64.20;;;;;;4991262;28;20503;-53
2023/01/19 07:27:31;;;;;;;15.27;11.87;;;-3.40;65.50;;;;;;4987112;28;20485;-52
2023/01/19 07:29:59;;;;;;;13.47;11.50;;;-3.40;67.80;;;;;;4989777;28;20899;-53
2023/01/19 07:32:26;;;;;;;13.20;11.50;;;-3.40;67.60;;;;;;4993120;28;20484;-52
2023/01/19 07:34:53;;;;;;;12.60;11.20;;;-3.40;68.80;;;;;;4992781;28;20510;-52
2023/01/19 07:37:19;;;;;;;16.67;10.03;;;-3.40;68.60;;;;;;4991550;28;20496;-53
2023/01/19 07:39:46;;;;;;;13.47;11.33;;;-3.40;67.20;;;;;;4993031;28;20499;-53
2023/01/19 07:42:13;;;;;;;14.97;11.17;;;-3.30;67.10;;;;;;4992984;28;20535;-52
2023/01/19 07:44:40;;;;;;;13.03;10.13;;;-3.30;67.80;;;;;;4991689;28;20502;-53
2023/01/19 07:47:10;;;;;;;13.50;10.53;;;-3.30;67.00;;;;;;4992106;28;20976;-52
2023/01/19 07:49:36;;;;;;;12.83;10.77;;;-3.20;64.50;;;;;;4993352;28;20464;-52
2023/01/19 07:52:03;;;;;;;14.93;10.47;;;-3.20;64.20;;;;;;4976957;28;20578;-52
2023/01/19 07:54:29;;;;;;;15.63;9.77;;;-3.20;65.50;;;;;;4986990;28;20977;-52
2023/01/19 07:56:56;;;;;;;13.83;10.80;;;-3.00;65.60;;;;;;4989348;28;20527;-52
2023/01/19 07:59:23;;;;;;;13.07;11.00;;;-3.00;67.90;;;;;;4985167;28;21039;-52
2023/01/19 08:01:52;;;;;;;14.90;10.67;;;-2.90;68.40;;;;;;4992473;28;20489;-52
2023/01/19 08:04:19;;;;;;;12.83;10.87;;;-2.90;70.50;;;;;;4988559;28;20461;-52
2023/01/19 08:06:46;;;;;;;13.40;11.03;;;-2.80;72.30;;;;;;4986347;28;20548;-53
2023/01/19 08:09:13;;;;;;;18.33;12.00;;;-2.80;72.80;;;;;;4981861;28;20472;-52
2023/01/19 08:11:40;;;;;;;13.00;10.50;;;-2.80;73.80;;;;;;4983735;28;21269;-52
2023/01/19 08:14:06;;;;;;;15.83;12.17;;;-2.70;72.40;;;;;;4987473;28;20985;-52
2023/01/19 08:16:33;;;;;;;14.63;10.37;;;-2.70;76.10;;;;;;4989563;28;20527;-52
2023/01/19 08:19:01;;;;;;;14.30;10.27;;;-2.60;82.10;;;;;;4987864;28;20499;-54
2023/01/19 08:21:28;;;;;;;16.70;12.50;;;-2.60;81.90;;;;;;4990739;28;20542;-53
2023/01/19 08:23:55;;;;;;;16.83;11.50;;;-2.50;78.50;;;;;;4986379;28;20510;-52
2023/01/19 08:26:26;;;;;;;17.30;12.10;;;-2.50;76.30;;;;;;4989991;28;20495;-53
2023/01/19 08:28:54;;;;;;;16.60;11.33;;;-2.40;76.30;;;;;;4987202;28;20560;-52
2023/01/19 08:31:21;;;;;;;12.07;9.93;;;-2.10;81.90;;;;;;4989062;28;20476;-52
2023/01/19 08:33:47;;;;;;;12.53;10.53;;;-1.60;90.00;;;;;;4986391;28;20893;-52
2023/01/19 08:36:15;;;;;;;17.20;11.33;;;-1.40;99.90;;;;;;4986433;28;20586;-53
2023/01/19 08:38:43;;;;;;;14.07;10.90;;;-0.80;99.90;;;;;;4992263;28;20502;-52
2023/01/19 08:41:10;;;;;;;14.77;10.50;;;-0.50;99.90;;;;;;4983998;28;20505;-52
2023/01/19 08:43:37;;;;;;;14.07;10.90;;;0.10;99.90;;;;;;4988593;28;20496;-52
2023/01/19 08:46:05;;;;;;;13.33;11.00;;;0.10;99.90;;;;;;4988196;28;20463;-52
2023/01/19 08:48:31;;;;;;;14.30;10.60;;;0.20;99.90;;;;;;4991389;28;20487;-52
2023/01/19 08:50:59;;;;;;;16.37;10.33;;;0.00;99.90;;;;;;4986195;28;20578;-52
2023/01/19 08:53:27;;;;;;;13.10;10.80;;;-0.10;99.90;;;;;;4989155;28;20985;-52
2023/01/19 08:55:56;;;;;;;11.63;10.10;;;-0.10;99.90;;;;;;4981338;28;20571;-52
2023/01/19 08:58:23;;;;;;;14.40;9.87;;;0.20;99.90;;;;;;4986975;28;20551;-53
2023/01/19 09:00:51;;;;;;;12.07;9.77;;;0.30;99.90;;;;;;4989965;28;20499;-53
2023/01/19 09:03:18;;;;;;;15.40;11.83;;;0.40;99.90;;;;;;4987844;28;20491;-52
2023/01/19 09:05:45;;;;;;;9.77;8.87;;;0.50;99.90;;;;;;4987332;28;20550;-52
2023/01/19 09:08:13;;;;;;;11.00;9.30;;;0.60;99.90;;;;;;4988265;28;20523;-52
2023/01/19 09:10:46;;;;;;;14.10;9.47;;;1.30;20.10;;;;;;4984485;28;20503;-52
2023/01/19 09:13:14;;;;;;;13.07;10.20;;;1.90;54.10;;;;;;4988125;28;20538;-52
2023/01/19 09:15:42;;;;;;;10.73;9.63;;;1.40;54.50;;;;;;4990590;28;20491;-52
2023/01/19 09:18:12;;;;;;;12.93;9.10;;;1.20;47.20;;;;;;4991418;28;20464;-53
2023/01/19 09:20:41;;;;;;;12.37;10.20;;;0.60;22.60;;;;;;4993367;28;20488;-52
2023/01/19 09:23:09;;;;;;;12.80;10.40;;;0.40;99.90;;;;;;4987381;28;20562;-52
2023/01/19 09:25:36;;;;;;;10.90;8.80;;;0.20;99.90;;;;;;4987141;28;20472;-53
2023/01/19 09:28:04;;;;;;;18.23;9.00;;;0.10;99.90;;;;;;4979074;28;20560;-53
2023/01/19 09:30:31;;;;;;;14.13;10.07;;;0.00;99.90;;;;;;4986659;28;20890;-53
2023/01/19 09:33:01;;;;;;;12.87;9.60;;;-0.10;99.90;;;;;;4990678;28;20502;-53
2023/01/19 09:35:29;;;;;;;12.10;9.47;;;-0.30;99.90;;;;;;4983343;28;20492;-53
2023/01/19 09:37:56;;;;;;;11.20;8.80;;;-0.40;99.90;;;;;;4987244;28;20464;-53
2023/01/19 09:40:22;;;;;;;10.10;8.97;;;-0.20;99.90;;;;;;4990347;28;20491;-54
2023/01/19 09:42:55;;;;;;;11.80;8.70;;;-0.10;99.90;;;;;;4981224;28;20523;-52
2023/01/19 09:45:31;;;;;;;9.70;8.70;;;0.00;99.90;;;;;;4983633;28;20474;-52
2023/01/19 09:48:00;;;;;;;10.07;8.80;;;0.20;99.90;;;;;;4989812;28;20491;-52
2023/01/19 09:50:31;;;;;;;9.57;8.23;;;0.80;99.90;;;;;;4984970;28;21034;-52
2023/01/19 09:53:06;;;;;;;13.83;8.80;;;1.40;99.90;;;;;;4984681;28;20524;-52
2023/01/19 09:55:33;;;;;;;11.00;7.63;;;1.50;24.30;;;;;;4979409;28;20918;-52
2023/01/19 09:58:00;;;;;;;11.60;7.83;;;1.70;32.20;;;;;;4990848;28;20526;-52
2023/01/19 10:00:30;;;;;;;13.60;8.27;;;2.60;99.90;;;;;;4989565;28;20483;-52
2023/01/19 10:03:01;;;;;;;9.23;7.67;;;3.80;99.90;;;;;;4978688;28;20487;-52
2023/01/19 10:05:31;;;;;;;13.03;8.13;;;4.40;84.20;;;;;;4985898;28;21010;-53
2023/01/19 10:08:12;;;;;;;13.63;7.87;;;4.70;87.70;;;;;;4988099;28;20833;-52
2023/01/19 10:10:42;;;;;;;10.10;8.23;;;5.00;99.90;;;;;;4982931;28;20463;-51
2023/01/19 10:13:21;;;;;;;9.30;7.90;;;4.50;98.30;;;;;;4985618;28;20491;-52
2023/01/19 10:15:57;;;;;;;9.30;8.27;;;4.30;92.00;;;;;;4990051;28;20471;-53
2023/01/19 10:18:29;;;;;;;11.00;8.10;;;5.90;99.90;;;;;;4986993;28;20899;-52
2023/01/19 10:21:02;;;;;;;10.40;7.60;;;6.30;99.90;;;;;;4993259;28;20467;-52
2023/01/19 10:23:38;;;;;;;10.57;6.83;;;5.90;99.90;;;;;;4987979;28;20870;-52
2023/01/19 10:26:10;;;;;;;12.93;7.67;;;5.80;99.90;;;;;;4993862;28;20495;-52
2023/01/19 10:28:38;;;;;;;8.97;6.83;;;5.20;99.90;;;;;;4990243;28;21008;-52
2023/01/19 10:31:08;;;;;;;12.07;7.33;;;4.40;99.90;;;;;;4986690;28;20489;-52
2023/01/19 10:33:35;;;;;;;14.03;8.13;;;3.80;99.90;;;;;;4991174;28;20551;-52
2023/01/19 10:36:05;;;;;;;8.00;7.20;;;3.60;96.10;;;;;;4993200;28;20497;-52
2023/01/19 10:38:33;;;;;;;8.13;7.40;;;2.90;40.10;;;;;;4993180;28;20970;-52
2023/01/19 10:41:05;;;;;;;12.80;7.10;;;2.90;39.70;;;;;;4993764;28;20499;-52
2023/01/19 10:43:38;;;;;;;9.97;7.27;;;2.70;24.80;;;;;;4997330;28;20477;-53
2023/01/19 10:46:30;;;;;;;7.63;6.83;;;3.10;35.90;;;;;;4993675;28;20535;-53
2023/01/19 10:48:56;;;;;;;10.90;7.73;;;2.60;35.10;;;;;;4980042;28;20551;-53
2023/01/19 10:51:23;;;;;;;8.23;7.43;;;2.30;99.90;;;;;;4987027;28;20529;-53
2023/01/19 10:53:56;;;;;;;9.90;7.10;;;2.30;99.90;;;;;;4987721;28;20495;-53
2023/01/19 10:56:29;;;;;;;8.70;7.13;;;2.30;99.90;;;;;;4983043;28;20571;-53
2023/01/19 10:58:56;;;;;;;11.93;8.37;;;2.30;99.90;;;;;;4991164;28;20986;-53
2023/01/19 11:01:25;;;;;;;12.47;6.97;;;2.70;99.90;;;;;;4976293;28;20487;-53
2023/01/19 11:03:53;;;;;;;9.90;7.30;;;2.70;99.90;;;;;;4988979;28;20468;-54
2023/01/19 11:06:28;;;;;;;7.30;6.17;;;2.40;99.90;;;;;;4991531;28;20510;-52
2023/01/19 11:09:15;;;;;;;8.10;6.57;;;2.30;99.90;;;;;;4995013;28;20990;-52
2023/01/19 11:11:46;;;;;;;12.83;6.50;;;3.00;99.90;;;;;;4992713;28;20487;-52
2023/01/19 11:14:19;;;;;;;12.47;7.80;;;2.80;75.90;;;;;;4990556;28;20491;-52
2023/01/19 11:16:51;;;;;;;8.47;6.90;;;2.10;99.90;;;;;;4988911;28;20488;-52
2023/01/19 11:19:23;;;;;;;8.13;6.90;;;2.10;99.90;;;;;;4990781;28;21026;-52
2023/01/19 11:21:50;;;;;;;8.73;6.20;;;2.20;99.90;;;;;;4997679;28;20546;-53
2023/01/19 11:24:17;;;;;;;9.00;6.77;;;2.70;99.90;;;;;;4995362;28;20502;-52
2023/01/19 11:26:46;;;;;;;11.03;8.00;;;2.50;99.90;;;;;;4990492;28;20495;-54
2023/01/19 11:29:17;;;;;;;12.57;8.47;;;2.30;99.90;;;;;;4989395;28;20526;-53
2023/01/19 11:31:44;;;;;;;8.87;6.90;;;4.20;26.70;;;;;;4983659;28;21016;-52
2023/01/19 11:34:26;;;;;;;7.83;7.13;;;4.40;75.40;;;;;;4985065;28;20493;-53
2023/01/19 11:36:58;;;;;;;7.77;6.33;;;3.60;63.00;;;;;;4984588;28;20996;-52
2023/01/19 11:39:27;;;;;;;6.80;6.10;;;3.50;47.70;;;;;;4989280;28;20464;-53
2023/01/19 11:41:56;;;;;;;10.10;6.40;;;4.90;90.20;;;;;;4987787;28;20543;-55
2023/01/19 11:44:25;;;;;;;6.53;5.93;;;4.80;99.90;;;;;;4989365;28;20472;-55
2023/01/19 11:46:55;;;;;;;12.23;6.37;;;3.90;87.40;;;;;;4990304;28;20456;-54
2023/01/19 11:49:31;;;;;;;10.33;6.60;;;3.30;58.60;;;;;;4986638;28;20500;-54
2023/01/19 11:52:02;;;;;;;7.43;6.57;;;3.30;47.10;;;;;;4978430;28;20582;-55
2023/01/19 11:54:34;;;;;;;7.73;6.83;;;3.00;22.10;;;;;;4981624;28;20503;-51
2023/01/19 11:57:01;;;;;;;9.10;5.90;;;2.80;99.90;;;;;;4989027;28;20528;-54
2023/01/19 11:59:28;;;;;;;12.90;6.30;;;2.70;99.90;;;;;;4991044;28;21008;-56
2023/01/19 12:01:58;;;;;;;9.37;6.87;;;2.70;99.90;;;;;;4978191;28;20547;-55
2023/01/19 12:04:29;;;;;;;12.00;6.67;;;2.70;99.90;;;;;;4982872;28;20515;-56
2023/01/19 12:06:58;;;;;;;8.63;6.00;;;2.80;99.90;;;;;;4986508;28;21240;-57
2023/01/19 12:09:28;;;;;;;6.90;6.20;;;2.80;99.90;;;;;;4989816;28;20553;-57
2023/01/19 12:11:58;;;;;;;7.27;6.37;;;2.80;99.90;;;;;;4991875;28;20522;-55
2023/01/19 12:14:31;;;;;;;8.23;6.10;;;2.90;99.90;;;;;;4977324;28;20579;-56
2023/01/19 12:17:00;;;;;;;7.67;6.73;;;2.90;99.90;;;;;;4980583;28;20615;-54
2023/01/19 12:19:36;;;;;;;7.80;7.00;;;3.00;99.90;;;;;;4997077;28;20553;-57
2023/01/19 12:22:04;;;;;;;9.70;7.13;;;4.80;59.00;;;;;;4992717;28;20515;-55
2023/01/19 12:24:40;;;;;;;6.77;6.17;;;6.00;99.90;;;;;;4990183;28;20887;-54
2023/01/19 12:27:15;;;;;;;14.20;7.17;;;5.30;99.90;;;;;;4990020;28;20887;-54
2023/01/19 12:29:42;;;;;;;8.70;7.00;;;5.20;99.90;;;;;;4975862;28;20496;-54
2023/01/19 12:32:33;;;;;;;9.03;6.10;;;5.80;99.90;;;;;;4978845;28;20921;-54
2023/01/19 12:35:01;;;;;;;9.70;6.60;;;6.90;99.90;;;;;;4989883;28;20463;-54
2023/01/19 12:37:34;;;;;;;7.90;6.70;;;7.00;99.90;;;;;;4984910;28;20522;-56
2023/01/19 12:40:04;;;;;;;9.73;6.43;;;7.10;99.90;;;;;;4990176;28;20992;-56
2023/01/19 12:42:31;;;;;;;10.40;7.00;;;6.70;99.90;;;;;;4991568;28;20501;-55
2023/01/19 12:45:06;;;;;;;11.07;6.50;;;6.10;99.90;;;;;;4991346;28;20503;-56
2023/01/19 12:47:34;;;;;;;7.00;6.30;;;6.10;99.90;;;;;;4993647;28;20474;-55
2023/01/19 12:50:07;;;;;;;7.37;5.70;;;6.10;99.90;;;;;;4985742;28;20468;-55
2023/01/19 12:52:39;;;;;;;9.20;6.30;;;5.90;99.90;;;;;;4988809;28;20570;-55
2023/01/19 12:55:19;;;;;;;7.60;6.40;;;5.40;99.90;;;;;;4983916;28;20475;-56
2023/01/19 12:57:56;;;;;;;8.20;6.87;;;4.90;99.90;;;;;;4979501;28;20933;-55